sensor_id;sensor_type;location;lat;lon;timestamp;P1;durP1;ratioP1;P2;durP2;ratioP2
55647;SDS011;45266;48.756;9.246;2023-08-17T00:00:25;5.45;;;3.72;;
55647;SDS011;45266;48.756;9.246;2023-08-17T00:01:30;7.65;;;4.10;;
55647;SDS011;45266;48.756;9.246;2023-08-17T00:02:36;4.55;;;3.88;;
55647;SDS011;45266;48.756;9.246;2023-08-17T00:03:42;4.97;;;4.13;;
55647;SDS011;45266;48.756;9.246;2023-08-17T00:04:48;6.03;;;3.72;;
55647;SDS011;45266;48.756;9.246;2023-08-17T00:05:54;5.03;;;3.95;;
55647;SDS011;45266;48.756;9.246;2023-08-17T00:06:59;4.43;;;3.40;;
55647;SDS011;45266;48.756;9.246;2023-08-17T00:08:05;4.32;;;3.50;;
55647;SDS011;45266;48.756;9.246;2023-08-17T00:09:11;8.65;;;3.67;;
55647;SDS011;45266;48.756;9.246;2023-08-17T00:10:18;6.40;;;3.78;;
55647;SDS011;45266;48.756;9.246;2023-08-17T00:11:25;6.22;;;4.20;;
55647;SDS011;45266;48.756;9.246;2023-08-17T00:12:32;7.80;;;4.22;;
55647;SDS011;45266;48.756;9.246;2023-08-17T00:13:39;5.53;;;3.80;;
55647;SDS011;45266;48.756;9.246;2023-08-17T00:14:46;6.10;;;3.85;;
55647;SDS011;45266;48.756;9.246;2023-08-17T00:15:51;5.15;;;4.18;;
55647;SDS011;45266;48.756;9.246;2023-08-17T00:16:58;5.05;;;4.05;;
55647;SDS011;45266;48.756;9.246;2023-08-17T00:18:04;5.45;;;4.22;;
55647;SDS011;45266;48.756;9.246;2023-08-17T00:19:10;4.30;;;3.90;;
55647;SDS011;45266;48.756;9.246;2023-08-17T00:20:16;5.22;;;3.63;;
55647;SDS011;45266;48.756;9.246;2023-08-17T00:21:22;4.15;;;3.38;;
55647;SDS011;45266;48.756;9.246;2023-08-17T00:22:28;4.25;;;3.83;;
55647;SDS011;45266;48.756;9.246;2023-08-17T00:23:34;5.65;;;3.95;;
55647;SDS011;45266;48.756;9.246;2023-08-17T00:24:39;6.90;;;4.13;;
55647;SDS011;45266;48.756;9.246;2023-08-17T00:25:48;5.07;;;4.20;;
55647;SDS011;45266;48.756;9.246;2023-08-17T00:26:54;7.25;;;3.92;;
55647;SDS011;45266;48.756;9.246;2023-08-17T00:28:01;4.40;;;3.83;;
55647;SDS011;45266;48.756;9.246;2023-08-17T00:29:09;7.28;;;4.22;;
55647;SDS011;45266;48.756;9.246;2023-08-17T00:30:16;5.35;;;4.05;;
55647;SDS011;45266;48.756;9.246;2023-08-17T00:31:23;8.48;;;3.97;;
55647;SDS011;45266;48.756;9.246;2023-08-17T00:32:28;6.93;;;3.92;;
55647;SDS011;45266;48.756;9.246;2023-08-17T00:33:34;4.93;;;4.40;;
55647;SDS011;45266;48.756;9.246;2023-08-17T00:34:40;6.97;;;4.40;;
55647;SDS011;45266;48.756;9.246;2023-08-17T00:35:46;4.80;;;4.18;;
55647;SDS011;45266;48.756;9.246;2023-08-17T00:36:51;5.22;;;4.10;;
55647;SDS011;45266;48.756;9.246;2023-08-17T00:37:57;8.38;;;4.93;;
55647;SDS011;45266;48.756;9.246;2023-08-17T00:39:04;4.88;;;3.88;;
55647;SDS011;45266;48.756;9.246;2023-08-17T00:40:10;5.68;;;4.03;;
55647;SDS011;45266;48.756;9.246;2023-08-17T00:41:15;9.40;;;4.50;;
55647;SDS011;45266;48.756;9.246;2023-08-17T00:42:21;7.07;;;4.28;;
55647;SDS011;45266;48.756;9.246;2023-08-17T00:43:26;5.28;;;4.25;;
55647;SDS011;45266;48.756;9.246;2023-08-17T00:44:32;6.85;;;4.63;;
55647;SDS011;45266;48.756;9.246;2023-08-17T00:45:37;4.68;;;4.25;;
55647;SDS011;45266;48.756;9.246;2023-08-17T00:46:43;6.75;;;4.43;;
55647;SDS011;45266;48.756;9.246;2023-08-17T00:47:49;5.47;;;3.80;;
55647;SDS011;45266;48.756;9.246;2023-08-17T00:48:55;6.15;;;4.28;;
55647;SDS011;45266;48.756;9.246;2023-08-17T00:50:02;5.93;;;4.55;;
55647;SDS011;45266;48.756;9.246;2023-08-17T00:51:08;5.97;;;4.10;;
55647;SDS011;45266;48.756;9.246;2023-08-17T00:52:14;6.00;;;4.35;;
55647;SDS011;45266;48.756;9.246;2023-08-17T00:53:20;5.38;;;4.55;;
55647;SDS011;45266;48.756;9.246;2023-08-17T00:54:26;4.85;;;4.35;;
55647;SDS011;45266;48.756;9.246;2023-08-17T00:55:33;5.00;;;4.20;;
55647;SDS011;45266;48.756;9.246;2023-08-17T00:56:39;5.10;;;4.38;;
55647;SDS011;45266;48.756;9.246;2023-08-17T00:57:45;7.65;;;4.57;;
55647;SDS011;45266;48.756;9.246;2023-08-17T00:58:50;8.32;;;4.20;;
55647;SDS011;45266;48.756;9.246;2023-08-17T00:59:57;8.77;;;4.07;;
55647;SDS011;45266;48.756;9.246;2023-08-17T01:01:07;4.78;;;4.38;;
55647;SDS011;45266;48.756;9.246;2023-08-17T01:02:12;6.55;;;4.90;;
55647;SDS011;45266;48.756;9.246;2023-08-17T01:03:17;6.30;;;4.30;;
55647;SDS011;45266;48.756;9.246;2023-08-17T01:04:26;6.20;;;4.20;;
55647;SDS011;45266;48.756;9.246;2023-08-17T01:05:33;11.40;;;4.82;;
55647;SDS011;45266;48.756;9.246;2023-08-17T01:06:40;9.43;;;4.53;;
55647;SDS011;45266;48.756;9.246;2023-08-17T01:07:46;4.60;;;4.18;;
55647;SDS011;45266;48.756;9.246;2023-08-17T01:08:52;7.97;;;4.70;;
55647;SDS011;45266;48.756;9.246;2023-08-17T01:09:58;9.23;;;4.55;;
55647;SDS011;45266;48.756;9.246;2023-08-17T01:13:16;5.93;;;4.93;;
55647;SDS011;45266;48.756;9.246;2023-08-17T01:15:11;8.45;;;4.78;;
55647;SDS011;45266;48.756;9.246;2023-08-17T01:16:16;6.28;;;4.30;;
55647;SDS011;45266;48.756;9.246;2023-08-17T01:17:33;6.68;;;4.55;;
55647;SDS011;45266;48.756;9.246;2023-08-17T01:18:47;7.30;;;4.70;;
55647;SDS011;45266;48.756;9.246;2023-08-17T01:19:55;5.03;;;4.30;;
55647;SDS011;45266;48.756;9.246;2023-08-17T01:21:05;7.88;;;4.75;;
55647;SDS011;45266;48.756;9.246;2023-08-17T01:22:16;6.28;;;5.00;;
55647;SDS011;45266;48.756;9.246;2023-08-17T01:23:26;5.20;;;4.47;;
55647;SDS011;45266;48.756;9.246;2023-08-17T01:24:31;7.05;;;4.93;;
55647;SDS011;45266;48.756;9.246;2023-08-17T01:25:37;7.18;;;4.88;;
55647;SDS011;45266;48.756;9.246;2023-08-17T01:26:43;6.38;;;4.63;;
55647;SDS011;45266;48.756;9.246;2023-08-17T01:27:49;6.07;;;4.63;;
55647;SDS011;45266;48.756;9.246;2023-08-17T01:28:55;10.38;;;5.40;;
55647;SDS011;45266;48.756;9.246;2023-08-17T01:30:01;8.80;;;4.50;;
55647;SDS011;45266;48.756;9.246;2023-08-17T01:31:19;5.72;;;4.43;;
55647;SDS011;45266;48.756;9.246;2023-08-17T01:33:48;5.90;;;4.93;;
55647;SDS011;45266;48.756;9.246;2023-08-17T01:35:01;8.18;;;4.80;;
55647;SDS011;45266;48.756;9.246;2023-08-17T01:36:22;11.10;;;5.05;;
55647;SDS011;45266;48.756;9.246;2023-08-17T01:37:34;5.82;;;4.72;;
55647;SDS011;45266;48.756;9.246;2023-08-17T01:38:42;5.32;;;4.60;;
55647;SDS011;45266;48.756;9.246;2023-08-17T01:39:50;6.25;;;4.20;;
55647;SDS011;45266;48.756;9.246;2023-08-17T01:40:59;6.25;;;4.82;;
55647;SDS011;45266;48.756;9.246;2023-08-17T01:42:07;6.25;;;4.97;;
55647;SDS011;45266;48.756;9.246;2023-08-17T01:43:14;9.10;;;5.13;;
55647;SDS011;45266;48.756;9.246;2023-08-17T01:44:22;5.63;;;4.82;;
55647;SDS011;45266;48.756;9.246;2023-08-17T01:45:29;6.30;;;5.32;;
55647;SDS011;45266;48.756;9.246;2023-08-17T01:46:35;7.47;;;5.60;;
55647;SDS011;45266;48.756;9.246;2023-08-17T01:47:40;5.95;;;5.38;;
55647;SDS011;45266;48.756;9.246;2023-08-17T01:48:46;6.60;;;5.15;;
55647;SDS011;45266;48.756;9.246;2023-08-17T01:49:51;5.95;;;5.32;;
55647;SDS011;45266;48.756;9.246;2023-08-17T01:50:56;7.30;;;5.10;;
55647;SDS011;45266;48.756;9.246;2023-08-17T01:51:59;8.77;;;5.18;;
55647;SDS011;45266;48.756;9.246;2023-08-17T01:53:05;5.68;;;5.18;;
55647;SDS011;45266;48.756;9.246;2023-08-17T01:54:12;6.10;;;5.47;;
55647;SDS011;45266;48.756;9.246;2023-08-17T01:55:18;6.80;;;5.53;;
55647;SDS011;45266;48.756;9.246;2023-08-17T01:56:26;5.85;;;5.35;;
55647;SDS011;45266;48.756;9.246;2023-08-17T01:57:31;5.80;;;5.20;;
55647;SDS011;45266;48.756;9.246;2023-08-17T01:58:37;8.40;;;5.22;;
55647;SDS011;45266;48.756;9.246;2023-08-17T01:59:44;6.82;;;5.35;;
55647;SDS011;45266;48.756;9.246;2023-08-17T02:00:50;8.45;;;5.80;;
55647;SDS011;45266;48.756;9.246;2023-08-17T02:01:56;7.80;;;5.35;;
55647;SDS011;45266;48.756;9.246;2023-08-17T02:03:02;9.13;;;5.45;;
55647;SDS011;45266;48.756;9.246;2023-08-17T02:04:08;6.25;;;5.60;;
55647;SDS011;45266;48.756;9.246;2023-08-17T02:05:14;6.10;;;5.50;;
55647;SDS011;45266;48.756;9.246;2023-08-17T02:06:19;6.15;;;5.43;;
55647;SDS011;45266;48.756;9.246;2023-08-17T02:07:24;6.18;;;5.57;;
55647;SDS011;45266;48.756;9.246;2023-08-17T02:08:30;6.22;;;5.50;;
55647;SDS011;45266;48.756;9.246;2023-08-17T02:09:38;7.78;;;5.50;;
55647;SDS011;45266;48.756;9.246;2023-08-17T02:10:43;7.78;;;5.70;;
55647;SDS011;45266;48.756;9.246;2023-08-17T02:11:49;7.85;;;5.68;;
55647;SDS011;45266;48.756;9.246;2023-08-17T02:12:54;8.10;;;5.40;;
55647;SDS011;45266;48.756;9.246;2023-08-17T02:14:13;5.90;;;5.40;;
55647;SDS011;45266;48.756;9.246;2023-08-17T02:15:19;8.15;;;5.60;;
55647;SDS011;45266;48.756;9.246;2023-08-17T02:16:24;6.82;;;5.50;;
55647;SDS011;45266;48.756;9.246;2023-08-17T02:17:30;7.13;;;5.28;;
55647;SDS011;45266;48.756;9.246;2023-08-17T02:18:35;8.05;;;5.43;;
55647;SDS011;45266;48.756;9.246;2023-08-17T02:19:42;6.28;;;5.68;;
55647;SDS011;45266;48.756;9.246;2023-08-17T02:20:49;6.30;;;5.70;;
55647;SDS011;45266;48.756;9.246;2023-08-17T02:21:56;8.38;;;5.80;;
55647;SDS011;45266;48.756;9.246;2023-08-17T02:23:01;5.72;;;5.22;;
55647;SDS011;45266;48.756;9.246;2023-08-17T02:24:07;8.48;;;5.60;;
55647;SDS011;45266;48.756;9.246;2023-08-17T02:25:13;5.88;;;5.28;;
55647;SDS011;45266;48.756;9.246;2023-08-17T02:26:19;6.88;;;5.90;;
55647;SDS011;45266;48.756;9.246;2023-08-17T02:27:25;10.52;;;5.70;;
55647;SDS011;45266;48.756;9.246;2023-08-17T02:28:30;7.70;;;6.38;;
55647;SDS011;45266;48.756;9.246;2023-08-17T02:29:36;7.13;;;6.22;;
55647;SDS011;45266;48.756;9.246;2023-08-17T02:30:41;7.40;;;5.90;;
55647;SDS011;45266;48.756;9.246;2023-08-17T02:31:47;7.15;;;5.55;;
55647;SDS011;45266;48.756;9.246;2023-08-17T02:32:53;8.32;;;6.88;;
55647;SDS011;45266;48.756;9.246;2023-08-17T02:33:59;7.80;;;6.68;;
55647;SDS011;45266;48.756;9.246;2023-08-17T02:35:08;8.10;;;6.07;;
55647;SDS011;45266;48.756;9.246;2023-08-17T02:36:14;9.60;;;6.97;;
55647;SDS011;45266;48.756;9.246;2023-08-17T02:37:20;8.55;;;6.32;;
55647;SDS011;45266;48.756;9.246;2023-08-17T02:38:27;9.32;;;6.30;;
55647;SDS011;45266;48.756;9.246;2023-08-17T02:39:33;8.88;;;6.30;;
55647;SDS011;45266;48.756;9.246;2023-08-17T02:40:39;7.57;;;6.28;;
55647;SDS011;45266;48.756;9.246;2023-08-17T02:41:45;8.35;;;6.85;;
55647;SDS011;45266;48.756;9.246;2023-08-17T02:42:53;8.18;;;6.78;;
55647;SDS011;45266;48.756;9.246;2023-08-17T02:43:59;10.80;;;7.32;;
55647;SDS011;45266;48.756;9.246;2023-08-17T02:45:06;7.55;;;6.75;;
55647;SDS011;45266;48.756;9.246;2023-08-17T02:46:12;7.88;;;7.13;;
55647;SDS011;45266;48.756;9.246;2023-08-17T02:47:18;9.80;;;7.03;;
55647;SDS011;45266;48.756;9.246;2023-08-17T02:48:25;11.30;;;7.28;;
55647;SDS011;45266;48.756;9.246;2023-08-17T02:49:33;7.60;;;6.88;;
55647;SDS011;45266;48.756;9.246;2023-08-17T02:50:39;8.95;;;8.10;;
55647;SDS011;45266;48.756;9.246;2023-08-17T02:51:45;8.45;;;7.55;;
55647;SDS011;45266;48.756;9.246;2023-08-17T02:52:50;8.38;;;7.20;;
55647;SDS011;45266;48.756;9.246;2023-08-17T02:53:56;8.27;;;7.10;;
55647;SDS011;45266;48.756;9.246;2023-08-17T02:55:02;8.88;;;7.43;;
55647;SDS011;45266;48.756;9.246;2023-08-17T02:56:08;8.80;;;7.40;;
55647;SDS011;45266;48.756;9.246;2023-08-17T02:57:15;10.18;;;6.35;;
55647;SDS011;45266;48.756;9.246;2023-08-17T02:58:22;10.30;;;7.57;;
55647;SDS011;45266;48.756;9.246;2023-08-17T02:59:28;7.88;;;7.07;;
55647;SDS011;45266;48.756;9.246;2023-08-17T03:00:33;8.38;;;7.25;;
55647;SDS011;45266;48.756;9.246;2023-08-17T03:01:38;7.85;;;6.40;;
55647;SDS011;45266;48.756;9.246;2023-08-17T03:02:44;10.05;;;7.25;;
55647;SDS011;45266;48.756;9.246;2023-08-17T03:03:50;9.63;;;7.38;;
55647;SDS011;45266;48.756;9.246;2023-08-17T03:04:58;11.50;;;7.35;;
55647;SDS011;45266;48.756;9.246;2023-08-17T03:06:04;7.90;;;7.15;;
55647;SDS011;45266;48.756;9.246;2023-08-17T03:07:09;8.85;;;7.10;;
55647;SDS011;45266;48.756;9.246;2023-08-17T03:08:16;7.65;;;6.85;;
55647;SDS011;45266;48.756;9.246;2023-08-17T03:09:22;7.55;;;6.82;;
55647;SDS011;45266;48.756;9.246;2023-08-17T03:10:28;9.15;;;6.90;;
55647;SDS011;45266;48.756;9.246;2023-08-17T03:11:35;9.73;;;7.22;;
55647;SDS011;45266;48.756;9.246;2023-08-17T03:12:41;8.07;;;6.97;;
55647;SDS011;45266;48.756;9.246;2023-08-17T03:13:46;8.82;;;7.10;;
55647;SDS011;45266;48.756;9.246;2023-08-17T03:14:52;7.35;;;6.55;;
55647;SDS011;45266;48.756;9.246;2023-08-17T03:15:58;8.30;;;7.47;;
55647;SDS011;45266;48.756;9.246;2023-08-17T03:17:04;10.43;;;7.70;;
55647;SDS011;45266;48.756;9.246;2023-08-17T03:18:09;8.25;;;7.43;;
55647;SDS011;45266;48.756;9.246;2023-08-17T03:19:15;8.90;;;7.15;;
55647;SDS011;45266;48.756;9.246;2023-08-17T03:20:21;8.25;;;6.88;;
55647;SDS011;45266;48.756;9.246;2023-08-17T03:21:26;10.80;;;7.10;;
55647;SDS011;45266;48.756;9.246;2023-08-17T03:22:32;10.25;;;7.38;;
55647;SDS011;45266;48.756;9.246;2023-08-17T03:23:39;9.00;;;7.53;;
55647;SDS011;45266;48.756;9.246;2023-08-17T03:24:46;16.27;;;8.07;;
55647;SDS011;45266;48.756;9.246;2023-08-17T03:25:52;9.45;;;7.53;;
55647;SDS011;45266;48.756;9.246;2023-08-17T03:26:58;8.75;;;7.82;;
55647;SDS011;45266;48.756;9.246;2023-08-17T03:28:04;9.93;;;7.72;;
55647;SDS011;45266;48.756;9.246;2023-08-17T03:29:10;11.50;;;7.95;;
55647;SDS011;45266;48.756;9.246;2023-08-17T03:30:15;9.65;;;7.80;;
55647;SDS011;45266;48.756;9.246;2023-08-17T03:31:22;9.43;;;8.38;;
55647;SDS011;45266;48.756;9.246;2023-08-17T03:32:28;8.98;;;8.05;;
55647;SDS011;45266;48.756;9.246;2023-08-17T03:33:37;11.70;;;8.40;;
55647;SDS011;45266;48.756;9.246;2023-08-17T03:34:44;11.32;;;8.35;;
55647;SDS011;45266;48.756;9.246;2023-08-17T03:35:50;12.23;;;8.80;;
55647;SDS011;45266;48.756;9.246;2023-08-17T03:36:55;11.27;;;8.38;;
55647;SDS011;45266;48.756;9.246;2023-08-17T03:38:01;10.27;;;8.93;;
55647;SDS011;45266;48.756;9.246;2023-08-17T03:39:06;12.02;;;8.90;;
55647;SDS011;45266;48.756;9.246;2023-08-17T03:40:12;10.68;;;9.07;;
55647;SDS011;45266;48.756;9.246;2023-08-17T03:41:18;13.32;;;9.00;;
55647;SDS011;45266;48.756;9.246;2023-08-17T03:42:27;10.50;;;8.65;;
55647;SDS011;45266;48.756;9.246;2023-08-17T03:43:34;10.95;;;8.77;;
55647;SDS011;45266;48.756;9.246;2023-08-17T03:44:41;15.20;;;9.40;;
55647;SDS011;45266;48.756;9.246;2023-08-17T03:45:47;10.43;;;9.32;;
55647;SDS011;45266;48.756;9.246;2023-08-17T03:46:53;11.63;;;9.25;;
55647;SDS011;45266;48.756;9.246;2023-08-17T03:47:59;10.05;;;8.63;;
55647;SDS011;45266;48.756;9.246;2023-08-17T03:49:06;11.77;;;10.18;;
55647;SDS011;45266;48.756;9.246;2023-08-17T03:50:12;11.52;;;9.02;;
55647;SDS011;45266;48.756;9.246;2023-08-17T03:51:17;10.90;;;9.48;;
55647;SDS011;45266;48.756;9.246;2023-08-17T03:52:23;12.15;;;9.55;;
55647;SDS011;45266;48.756;9.246;2023-08-17T03:53:29;12.25;;;9.88;;
55647;SDS011;45266;48.756;9.246;2023-08-17T03:54:36;13.32;;;9.65;;
55647;SDS011;45266;48.756;9.246;2023-08-17T03:55:46;11.48;;;9.02;;
55647;SDS011;45266;48.756;9.246;2023-08-17T03:56:52;11.30;;;9.35;;
55647;SDS011;45266;48.756;9.246;2023-08-17T03:57:59;11.85;;;9.55;;
55647;SDS011;45266;48.756;9.246;2023-08-17T03:59:06;13.13;;;10.38;;
55647;SDS011;45266;48.756;9.246;2023-08-17T04:00:12;14.77;;;10.32;;
55647;SDS011;45266;48.756;9.246;2023-08-17T04:01:19;12.48;;;10.00;;
55647;SDS011;45266;48.756;9.246;2023-08-17T04:02:25;13.60;;;9.90;;
55647;SDS011;45266;48.756;9.246;2023-08-17T04:03:32;13.82;;;10.90;;
55647;SDS011;45266;48.756;9.246;2023-08-17T04:04:39;13.52;;;10.30;;
55647;SDS011;45266;48.756;9.246;2023-08-17T04:05:46;11.50;;;9.07;;
55647;SDS011;45266;48.756;9.246;2023-08-17T04:06:52;11.68;;;9.65;;
55647;SDS011;45266;48.756;9.246;2023-08-17T04:08:00;12.48;;;10.60;;
55647;SDS011;45266;48.756;9.246;2023-08-17T04:09:06;14.48;;;9.93;;
55647;SDS011;45266;48.756;9.246;2023-08-17T04:10:13;12.88;;;9.55;;
55647;SDS011;45266;48.756;9.246;2023-08-17T04:11:18;10.93;;;9.80;;
55647;SDS011;45266;48.756;9.246;2023-08-17T04:12:24;11.73;;;10.38;;
55647;SDS011;45266;48.756;9.246;2023-08-17T04:13:30;15.38;;;10.10;;
55647;SDS011;45266;48.756;9.246;2023-08-17T04:14:37;11.88;;;9.27;;
55647;SDS011;45266;48.756;9.246;2023-08-17T04:15:43;10.60;;;9.40;;
55647;SDS011;45266;48.756;9.246;2023-08-17T04:16:49;10.52;;;9.48;;
55647;SDS011;45266;48.756;9.246;2023-08-17T04:17:54;11.52;;;9.68;;
55647;SDS011;45266;48.756;9.246;2023-08-17T04:19:00;10.82;;;9.20;;
55647;SDS011;45266;48.756;9.246;2023-08-17T04:20:06;13.18;;;10.05;;
55647;SDS011;45266;48.756;9.246;2023-08-17T04:21:12;13.63;;;9.68;;
55647;SDS011;45266;48.756;9.246;2023-08-17T04:22:18;12.23;;;9.80;;
55647;SDS011;45266;48.756;9.246;2023-08-17T04:23:23;14.40;;;8.82;;
55647;SDS011;45266;48.756;9.246;2023-08-17T04:24:28;12.98;;;9.75;;
55647;SDS011;45266;48.756;9.246;2023-08-17T04:25:35;10.93;;;9.35;;
55647;SDS011;45266;48.756;9.246;2023-08-17T04:26:40;13.10;;;9.40;;
55647;SDS011;45266;48.756;9.246;2023-08-17T04:27:46;12.90;;;9.32;;
55647;SDS011;45266;48.756;9.246;2023-08-17T04:28:52;11.07;;;9.70;;
55647;SDS011;45266;48.756;9.246;2023-08-17T04:29:57;11.73;;;9.85;;
55647;SDS011;45266;48.756;9.246;2023-08-17T04:31:04;11.00;;;9.02;;
55647;SDS011;45266;48.756;9.246;2023-08-17T04:32:13;12.60;;;9.85;;
55647;SDS011;45266;48.756;9.246;2023-08-17T04:33:19;11.70;;;9.55;;
55647;SDS011;45266;48.756;9.246;2023-08-17T04:34:24;12.95;;;10.43;;
55647;SDS011;45266;48.756;9.246;2023-08-17T04:35:30;13.60;;;9.77;;
55647;SDS011;45266;48.756;9.246;2023-08-17T04:36:36;10.45;;;9.35;;
55647;SDS011;45266;48.756;9.246;2023-08-17T04:37:41;12.07;;;10.25;;
55647;SDS011;45266;48.756;9.246;2023-08-17T04:38:47;12.80;;;10.52;;
55647;SDS011;45266;48.756;9.246;2023-08-17T04:39:53;10.95;;;9.80;;
55647;SDS011;45266;48.756;9.246;2023-08-17T04:40:59;12.07;;;9.60;;
55647;SDS011;45266;48.756;9.246;2023-08-17T04:42:05;12.70;;;9.65;;
55647;SDS011;45266;48.756;9.246;2023-08-17T04:43:11;12.50;;;10.20;;
55647;SDS011;45266;48.756;9.246;2023-08-17T04:44:17;11.77;;;9.80;;
55647;SDS011;45266;48.756;9.246;2023-08-17T04:45:22;13.57;;;10.52;;
55647;SDS011;45266;48.756;9.246;2023-08-17T04:46:28;10.40;;;9.35;;
55647;SDS011;45266;48.756;9.246;2023-08-17T04:47:33;11.10;;;9.40;;
55647;SDS011;45266;48.756;9.246;2023-08-17T04:48:39;11.60;;;10.15;;
55647;SDS011;45266;48.756;9.246;2023-08-17T04:49:45;10.88;;;9.60;;
55647;SDS011;45266;48.756;9.246;2023-08-17T04:50:51;11.30;;;9.23;;
55647;SDS011;45266;48.756;9.246;2023-08-17T04:51:58;11.10;;;9.77;;
55647;SDS011;45266;48.756;9.246;2023-08-17T04:53:04;12.88;;;10.68;;
55647;SDS011;45266;48.756;9.246;2023-08-17T04:54:10;10.68;;;9.57;;
55647;SDS011;45266;48.756;9.246;2023-08-17T04:55:16;10.85;;;9.63;;
55647;SDS011;45266;48.756;9.246;2023-08-17T04:56:22;12.57;;;9.77;;
55647;SDS011;45266;48.756;9.246;2023-08-17T04:57:28;10.48;;;9.38;;
55647;SDS011;45266;48.756;9.246;2023-08-17T04:58:34;10.85;;;9.40;;
55647;SDS011;45266;48.756;9.246;2023-08-17T04:59:40;12.35;;;10.07;;
55647;SDS011;45266;48.756;9.246;2023-08-17T05:00:46;11.00;;;9.40;;
55647;SDS011;45266;48.756;9.246;2023-08-17T05:01:52;10.07;;;9.13;;
55647;SDS011;45266;48.756;9.246;2023-08-17T05:02:58;13.75;;;9.73;;
55647;SDS011;45266;48.756;9.246;2023-08-17T05:04:05;11.27;;;9.55;;
55647;SDS011;45266;48.756;9.246;2023-08-17T05:05:12;10.45;;;9.35;;
55647;SDS011;45266;48.756;9.246;2023-08-17T05:06:18;13.20;;;9.90;;
55647;SDS011;45266;48.756;9.246;2023-08-17T05:07:24;11.02;;;9.93;;
55647;SDS011;45266;48.756;9.246;2023-08-17T05:08:29;9.88;;;8.98;;
55647;SDS011;45266;48.756;9.246;2023-08-17T05:09:34;10.65;;;9.50;;
55647;SDS011;45266;48.756;9.246;2023-08-17T05:10:40;11.02;;;9.73;;
55647;SDS011;45266;48.756;9.246;2023-08-17T05:11:45;13.23;;;9.77;;
55647;SDS011;45266;48.756;9.246;2023-08-17T05:12:51;10.43;;;9.32;;
55647;SDS011;45266;48.756;9.246;2023-08-17T05:13:57;12.18;;;10.18;;
55647;SDS011;45266;48.756;9.246;2023-08-17T05:15:03;14.25;;;10.10;;
55647;SDS011;45266;48.756;9.246;2023-08-17T05:16:12;13.70;;;10.82;;
55647;SDS011;45266;48.756;9.246;2023-08-17T05:17:18;11.52;;;9.98;;
55647;SDS011;45266;48.756;9.246;2023-08-17T05:18:24;13.23;;;10.48;;
55647;SDS011;45266;48.756;9.246;2023-08-17T05:19:30;13.75;;;10.23;;
55647;SDS011;45266;48.756;9.246;2023-08-17T05:20:37;14.85;;;10.65;;
55647;SDS011;45266;48.756;9.246;2023-08-17T05:21:43;10.75;;;9.65;;
55647;SDS011;45266;48.756;9.246;2023-08-17T05:22:49;11.07;;;9.73;;
55647;SDS011;45266;48.756;9.246;2023-08-17T05:23:55;14.25;;;9.57;;
55647;SDS011;45266;48.756;9.246;2023-08-17T05:25:01;11.23;;;9.63;;
55647;SDS011;45266;48.756;9.246;2023-08-17T05:26:09;14.05;;;10.20;;
55647;SDS011;45266;48.756;9.246;2023-08-17T05:27:17;11.80;;;9.50;;
55647;SDS011;45266;48.756;9.246;2023-08-17T05:28:23;12.05;;;10.27;;
55647;SDS011;45266;48.756;9.246;2023-08-17T05:29:28;12.55;;;10.18;;
55647;SDS011;45266;48.756;9.246;2023-08-17T05:30:35;12.02;;;10.20;;
55647;SDS011;45266;48.756;9.246;2023-08-17T05:31:41;12.75;;;9.15;;
55647;SDS011;45266;48.756;9.246;2023-08-17T05:32:46;10.35;;;8.55;;
55647;SDS011;45266;48.756;9.246;2023-08-17T05:33:53;10.98;;;9.63;;
55647;SDS011;45266;48.756;9.246;2023-08-17T05:35:00;10.95;;;9.05;;
55647;SDS011;45266;48.756;9.246;2023-08-17T05:36:07;10.57;;;9.02;;
55647;SDS011;45266;48.756;9.246;2023-08-17T05:37:16;11.55;;;9.52;;
55647;SDS011;45266;48.756;9.246;2023-08-17T05:38:24;10.98;;;9.75;;
55647;SDS011;45266;48.756;9.246;2023-08-17T05:39:31;10.30;;;8.98;;
55647;SDS011;45266;48.756;9.246;2023-08-17T05:40:38;11.43;;;9.18;;
55647;SDS011;45266;48.756;9.246;2023-08-17T05:41:46;10.98;;;9.07;;
55647;SDS011;45266;48.756;9.246;2023-08-17T05:42:52;11.95;;;9.45;;
55647;SDS011;45266;48.756;9.246;2023-08-17T05:43:58;12.18;;;9.15;;
55647;SDS011;45266;48.756;9.246;2023-08-17T05:45:04;9.85;;;8.85;;
55647;SDS011;45266;48.756;9.246;2023-08-17T05:46:12;10.88;;;9.07;;
55647;SDS011;45266;48.756;9.246;2023-08-17T05:47:20;10.23;;;9.13;;
55647;SDS011;45266;48.756;9.246;2023-08-17T05:48:29;10.18;;;9.13;;
55647;SDS011;45266;48.756;9.246;2023-08-17T05:49:37;10.95;;;9.85;;
55647;SDS011;45266;48.756;9.246;2023-08-17T05:50:44;11.60;;;10.13;;
55647;SDS011;45266;48.756;9.246;2023-08-17T05:51:51;12.05;;;10.05;;
55647;SDS011;45266;48.756;9.246;2023-08-17T05:52:59;10.98;;;9.80;;
55647;SDS011;45266;48.756;9.246;2023-08-17T05:54:05;14.45;;;10.65;;
55647;SDS011;45266;48.756;9.246;2023-08-17T05:55:11;13.10;;;10.43;;
55647;SDS011;45266;48.756;9.246;2023-08-17T05:56:17;12.52;;;10.65;;
55647;SDS011;45266;48.756;9.246;2023-08-17T05:57:23;12.20;;;10.18;;
55647;SDS011;45266;48.756;9.246;2023-08-17T05:58:29;13.85;;;10.82;;
55647;SDS011;45266;48.756;9.246;2023-08-17T05:59:35;11.95;;;10.68;;
55647;SDS011;45266;48.756;9.246;2023-08-17T06:00:40;12.68;;;9.85;;
55647;SDS011;45266;48.756;9.246;2023-08-17T06:01:46;15.13;;;11.77;;
55647;SDS011;45266;48.756;9.246;2023-08-17T06:02:52;13.65;;;11.95;;
55647;SDS011;45266;48.756;9.246;2023-08-17T06:03:58;12.88;;;11.00;;
55647;SDS011;45266;48.756;9.246;2023-08-17T06:05:06;15.45;;;11.63;;
55647;SDS011;45266;48.756;9.246;2023-08-17T06:06:12;14.32;;;12.25;;
55647;SDS011;45266;48.756;9.246;2023-08-17T06:07:18;16.88;;;12.57;;
55647;SDS011;45266;48.756;9.246;2023-08-17T06:08:24;15.50;;;12.43;;
55647;SDS011;45266;48.756;9.246;2023-08-17T06:09:33;13.88;;;11.35;;
55647;SDS011;45266;48.756;9.246;2023-08-17T06:10:39;13.20;;;11.73;;
55647;SDS011;45266;48.756;9.246;2023-08-17T06:11:45;14.05;;;11.80;;
55647;SDS011;45266;48.756;9.246;2023-08-17T06:12:50;12.40;;;11.07;;
55647;SDS011;45266;48.756;9.246;2023-08-17T06:13:59;13.35;;;11.48;;
55647;SDS011;45266;48.756;9.246;2023-08-17T06:15:05;15.10;;;12.13;;
55647;SDS011;45266;48.756;9.246;2023-08-17T06:16:10;13.63;;;11.23;;
55647;SDS011;45266;48.756;9.246;2023-08-17T06:17:16;15.20;;;12.52;;
55647;SDS011;45266;48.756;9.246;2023-08-17T06:18:22;16.10;;;11.90;;
55647;SDS011;45266;48.756;9.246;2023-08-17T06:19:28;12.35;;;11.15;;
55647;SDS011;45266;48.756;9.246;2023-08-17T06:20:33;17.67;;;11.50;;
55647;SDS011;45266;48.756;9.246;2023-08-17T06:21:39;14.25;;;11.00;;
55647;SDS011;45266;48.756;9.246;2023-08-17T06:22:46;12.55;;;11.25;;
55647;SDS011;45266;48.756;9.246;2023-08-17T06:23:54;12.50;;;11.20;;
55647;SDS011;45266;48.756;9.246;2023-08-17T06:24:59;12.77;;;10.70;;
55647;SDS011;45266;48.756;9.246;2023-08-17T06:26:05;11.82;;;10.50;;
55647;SDS011;45266;48.756;9.246;2023-08-17T06:27:13;11.57;;;10.45;;
55647;SDS011;45266;48.756;9.246;2023-08-17T06:28:19;11.70;;;9.98;;
55647;SDS011;45266;48.756;9.246;2023-08-17T06:29:25;11.15;;;9.90;;
55647;SDS011;45266;48.756;9.246;2023-08-17T06:30:30;11.32;;;10.13;;
55647;SDS011;45266;48.756;9.246;2023-08-17T06:31:37;12.45;;;10.48;;
55647;SDS011;45266;48.756;9.246;2023-08-17T06:32:42;12.45;;;10.40;;
55647;SDS011;45266;48.756;9.246;2023-08-17T06:33:48;10.63;;;9.52;;
55647;SDS011;45266;48.756;9.246;2023-08-17T06:34:54;11.80;;;9.35;;
55647;SDS011;45266;48.756;9.246;2023-08-17T06:35:59;13.60;;;9.65;;
55647;SDS011;45266;48.756;9.246;2023-08-17T06:37:04;11.60;;;9.85;;
55647;SDS011;45266;48.756;9.246;2023-08-17T06:38:10;10.23;;;9.23;;
55647;SDS011;45266;48.756;9.246;2023-08-17T06:39:16;12.10;;;10.30;;
55647;SDS011;45266;48.756;9.246;2023-08-17T06:40:22;12.10;;;9.27;;